sensor_id;sensor_type;location;lat;lon;timestamp;temperature;humidity
24412;DHT22;12544;46.760;15.942;2023-03-03T00:00:06;6.50;99.90
24412;DHT22;12544;46.760;15.942;2023-03-03T00:02:31;6.40;99.90
24412;DHT22;12544;46.760;15.942;2023-03-03T00:04:57;6.40;99.90
24412;DHT22;12544;46.760;15.942;2023-03-03T00:07:22;6.40;99.90
24412;DHT22;12544;46.760;15.942;2023-03-03T00:09:48;6.40;99.90
24412;DHT22;12544;46.760;15.942;2023-03-03T00:12:19;6.40;99.90
24412;DHT22;12544;46.760;15.942;2023-03-03T00:14:45;6.40;99.90
24412;DHT22;12544;46.760;15.942;2023-03-03T00:17:21;6.40;99.90
24412;DHT22;12544;46.760;15.942;2023-03-03T00:19:47;6.40;99.90
24412;DHT22;12544;46.760;15.942;2023-03-03T00:22:16;6.30;99.90
24412;DHT22;12544;46.760;15.942;2023-03-03T00:24:46;6.30;99.90
24412;DHT22;12544;46.760;15.942;2023-03-03T00:27:16;6.30;99.90
24412;DHT22;12544;46.760;15.942;2023-03-03T00:29:48;6.30;99.90
24412;DHT22;12544;46.760;15.942;2023-03-03T00:32:26;6.30;99.90
24412;DHT22;12544;46.760;15.942;2023-03-03T00:34:53;6.20;99.90
24412;DHT22;12544;46.760;15.942;2023-03-03T00:42:51;6.20;99.90
24412;DHT22;12544;46.760;15.942;2023-03-03T00:46:03;6.20;99.90
24412;DHT22;12544;46.760;15.942;2023-03-03T00:50:44;6.20;99.90
24412;DHT22;12544;46.760;15.942;2023-03-03T00:56:12;6.10;99.90
24412;DHT22;12544;46.760;15.942;2023-03-03T00:58:38;6.00;99.90
24412;DHT22;12544;46.760;15.942;2023-03-03T01:01:03;5.90;99.90
24412;DHT22;12544;46.760;15.942;2023-03-03T01:03:29;6.00;99.90
24412;DHT22;12544;46.760;15.942;2023-03-03T01:05:54;6.00;99.90
24412;DHT22;12544;46.760;15.942;2023-03-03T01:08:20;6.00;99.90
24412;DHT22;12544;46.760;15.942;2023-03-03T01:10:56;6.00;99.90
24412;DHT22;12544;46.760;15.942;2023-03-03T01:13:25;6.00;99.90
24412;DHT22;12544;46.760;15.942;2023-03-03T01:15:51;6.00;99.90
24412;DHT22;12544;46.760;15.942;2023-03-03T01:18:17;6.00;99.90
24412;DHT22;12544;46.760;15.942;2023-03-03T01:20:42;6.10;99.90
24412;DHT22;12544;46.760;15.942;2023-03-03T01:26:11;6.10;99.90
24412;DHT22;12544;46.760;15.942;2023-03-03T01:28:36;6.10;99.90
24412;DHT22;12544;46.760;15.942;2023-03-03T01:31:02;6.20;99.90
24412;DHT22;12544;46.760;15.942;2023-03-03T01:33:29;6.20;99.90
24412;DHT22;12544;46.760;15.942;2023-03-03T01:38:59;6.20;99.90
24412;DHT22;12544;46.760;15.942;2023-03-03T01:41:28;6.20;99.90
24412;DHT22;12544;46.760;15.942;2023-03-03T01:43:54;6.20;99.90
24412;DHT22;12544;46.760;15.942;2023-03-03T01:48:48;6.10;99.90
24412;DHT22;12544;46.760;15.942;2023-03-03T01:51:17;6.10;99.90
24412;DHT22;12544;46.760;15.942;2023-03-03T01:56:47;6.10;99.90
24412;DHT22;12544;46.760;15.942;2023-03-03T01:59:20;6.10;99.90
24412;DHT22;12544;46.760;15.942;2023-03-03T02:01:47;6.00;99.90
24412;DHT22;12544;46.760;15.942;2023-03-03T02:04:12;6.00;99.90
24412;DHT22;12544;46.760;15.942;2023-03-03T02:06:44;6.00;99.90
24412;DHT22;12544;46.760;15.942;2023-03-03T02:12:14;6.00;99.90
24412;DHT22;12544;46.760;15.942;2023-03-03T02:14:41;6.00;99.90
24412;DHT22;12544;46.760;15.942;2023-03-03T02:17:06;5.90;99.90
24412;DHT22;12544;46.760;15.942;2023-03-03T02:21:58;5.80;99.90
24412;DHT22;12544;46.760;15.942;2023-03-03T02:24:27;5.80;99.90
24412;DHT22;12544;46.760;15.942;2023-03-03T02:26:55;5.80;99.90
24412;DHT22;12544;46.760;15.942;2023-03-03T02:29:21;5.90;99.90
24412;DHT22;12544;46.760;15.942;2023-03-03T02:31:47;5.90;99.90
24412;DHT22;12544;46.760;15.942;2023-03-03T02:34:12;5.90;99.90
24412;DHT22;12544;46.760;15.942;2023-03-03T02:36:38;5.90;99.90
24412;DHT22;12544;46.760;15.942;2023-03-03T02:39:17;5.90;99.90
24412;DHT22;12544;46.760;15.942;2023-03-03T02:50:19;6.00;99.90
24412;DHT22;12544;46.760;15.942;2023-03-03T02:52:44;5.90;99.90
24412;DHT22;12544;46.760;15.942;2023-03-03T02:55:10;6.00;99.90
24412;DHT22;12544;46.760;15.942;2023-03-03T02:57:35;6.00;99.90
24412;DHT22;12544;46.760;15.942;2023-03-03T03:00:01;6.00;99.90
24412;DHT22;12544;46.760;15.942;2023-03-03T03:02:27;6.00;99.90
24412;DHT22;12544;46.760;15.942;2023-03-03T03:07:42;6.00;99.90
24412;DHT22;12544;46.760;15.942;2023-03-03T03:10:07;6.00;99.90
24412;DHT22;12544;46.760;15.942;2023-03-03T03:12:33;6.00;99.90
24412;DHT22;12544;46.760;15.942;2023-03-03T03:14:58;6.00;99.90
24412;DHT22;12544;46.760;15.942;2023-03-03T03:17:24;6.00;99.90
24412;DHT22;12544;46.760;15.942;2023-03-03T03:19:50;6.00;99.90
24412;DHT22;12544;46.760;15.942;2023-03-03T03:22:15;6.00;99.90
24412;DHT22;12544;46.760;15.942;2023-03-03T03:24:41;5.90;99.90
24412;DHT22;12544;46.760;15.942;2023-03-03T03:27:07;5.90;99.90
24412;DHT22;12544;46.760;15.942;2023-03-03T03:29:33;6.00;99.90
24412;DHT22;12544;46.760;15.942;2023-03-03T03:31:58;5.90;99.90
24412;DHT22;12544;46.760;15.942;2023-03-03T03:34:24;5.90;99.90
24412;DHT22;12544;46.760;15.942;2023-03-03T03:37:01;5.90;99.90
24412;DHT22;12544;46.760;15.942;2023-03-03T03:39:27;5.90;99.90
24412;DHT22;12544;46.760;15.942;2023-03-03T03:41:52;6.00;99.90
24412;DHT22;12544;46.760;15.942;2023-03-03T03:44:18;6.00;99.90
24412;DHT22;12544;46.760;15.942;2023-03-03T03:46:43;6.00;99.90
24412;DHT22;12544;46.760;15.942;2023-03-03T03:49:09;6.00;99.90
24412;DHT22;12544;46.760;15.942;2023-03-03T03:51:34;6.00;99.90
24412;DHT22;12544;46.760;15.942;2023-03-03T03:54:02;6.00;99.90
24412;DHT22;12544;46.760;15.942;2023-03-03T03:56:28;6.00;99.90
24412;DHT22;12544;46.760;15.942;2023-03-03T03:58:53;6.10;99.90
24412;DHT22;12544;46.760;15.942;2023-03-03T04:01:19;6.10;99.90
24412;DHT22;12544;46.760;15.942;2023-03-03T04:03:44;6.10;99.90
24412;DHT22;12544;46.760;15.942;2023-03-03T04:06:10;6.10;99.90
24412;DHT22;12544;46.760;15.942;2023-03-03T04:08:35;6.10;99.90
24412;DHT22;12544;46.760;15.942;2023-03-03T04:11:01;6.10;99.90
24412;DHT22;12544;46.760;15.942;2023-03-03T04:13:26;6.10;99.90
24412;DHT22;12544;46.760;15.942;2023-03-03T04:15:53;6.10;99.90
24412;DHT22;12544;46.760;15.942;2023-03-03T04:18:18;6.00;99.90
24412;DHT22;12544;46.760;15.942;2023-03-03T04:20:44;6.10;99.90
24412;DHT22;12544;46.760;15.942;2023-03-03T04:23:09;6.10;99.90
24412;DHT22;12544;46.760;15.942;2023-03-03T04:25:35;6.10;99.90
24412;DHT22;12544;46.760;15.942;2023-03-03T04:28:00;6.10;99.90
24412;DHT22;12544;46.760;15.942;2023-03-03T04:30:26;6.10;99.90
24412;DHT22;12544;46.760;15.942;2023-03-03T04:35:45;6.00;99.90
24412;DHT22;12544;46.760;15.942;2023-03-03T04:38:10;6.00;99.90
24412;DHT22;12544;46.760;15.942;2023-03-03T04:40:36;6.00;99.90
24412;DHT22;12544;46.760;15.942;2023-03-03T04:43:01;6.00;99.90
24412;DHT22;12544;46.760;15.942;2023-03-03T04:45:46;6.00;99.90
24412;DHT22;12544;46.760;15.942;2023-03-03T04:48:12;6.00;99.90
24412;DHT22;12544;46.760;15.942;2023-03-03T04:50:38;6.00;99.90
24412;DHT22;12544;46.760;15.942;2023-03-03T04:53:03;5.90;99.90
24412;DHT22;12544;46.760;15.942;2023-03-03T04:55:29;5.90;99.90
24412;DHT22;12544;46.760;15.942;2023-03-03T04:57:54;5.90;99.90
24412;DHT22;12544;46.760;15.942;2023-03-03T05:03:23;5.80;99.90
24412;DHT22;12544;46.760;15.942;2023-03-03T05:05:49;5.70;99.90
24412;DHT22;12544;46.760;15.942;2023-03-03T05:08:14;5.70;99.90
24412;DHT22;12544;46.760;15.942;2023-03-03T05:10:40;5.70;99.90
24412;DHT22;12544;46.760;15.942;2023-03-03T05:13:06;5.70;99.90
24412;DHT22;12544;46.760;15.942;2023-03-03T05:15:32;5.70;99.90
24412;DHT22;12544;46.760;15.942;2023-03-03T05:18:12;5.70;99.90
24412;DHT22;12544;46.760;15.942;2023-03-03T05:20:38;5.70;99.90
24412;DHT22;12544;46.760;15.942;2023-03-03T05:23:04;5.60;99.90
24412;DHT22;12544;46.760;15.942;2023-03-03T05:25:29;5.60;99.90
24412;DHT22;12544;46.760;15.942;2023-03-03T05:27:55;5.60;99.90
24412;DHT22;12544;46.760;15.942;2023-03-03T05:30:37;5.60;99.90
24412;DHT22;12544;46.760;15.942;2023-03-03T05:33:03;5.60;99.90
24412;DHT22;12544;46.760;15.942;2023-03-03T05:35:29;5.60;99.90
24412;DHT22;12544;46.760;15.942;2023-03-03T05:37:54;5.60;99.90
24412;DHT22;12544;46.760;15.942;2023-03-03T05:40:22;5.60;99.90
24412;DHT22;12544;46.760;15.942;2023-03-03T05:42:48;5.60;99.90
24412;DHT22;12544;46.760;15.942;2023-03-03T05:45:14;5.60;99.90
24412;DHT22;12544;46.760;15.942;2023-03-03T05:47:39;5.60;99.90
24412;DHT22;12544;46.760;15.942;2023-03-03T05:50:05;5.60;99.90
24412;DHT22;12544;46.760;15.942;2023-03-03T05:52:30;5.60;99.90
24412;DHT22;12544;46.760;15.942;2023-03-03T05:54:56;5.60;99.90
24412;DHT22;12544;46.760;15.942;2023-03-03T05:57:21;5.70;99.90
24412;DHT22;12544;46.760;15.942;2023-03-03T05:59:47;5.70;99.90
24412;DHT22;12544;46.760;15.942;2023-03-03T06:02:12;5.60;99.90
24412;DHT22;12544;46.760;15.942;2023-03-03T06:04:38;5.60;99.90
24412;DHT22;12544;46.760;15.942;2023-03-03T06:07:04;5.60;99.90
24412;DHT22;12544;46.760;15.942;2023-03-03T06:09:29;5.60;99.90
24412;DHT22;12544;46.760;15.942;2023-03-03T06:15:08;5.70;99.90
24412;DHT22;12544;46.760;15.942;2023-03-03T06:17:33;5.70;99.90
24412;DHT22;12544;46.760;15.942;2023-03-03T06:19:59;5.70;99.90
24412;DHT22;12544;46.760;15.942;2023-03-03T06:22:24;5.80;99.90
24412;DHT22;12544;46.760;15.942;2023-03-03T06:24:50;5.80;99.90
24412;DHT22;12544;46.760;15.942;2023-03-03T06:27:17;5.80;99.90
24412;DHT22;12544;46.760;15.942;2023-03-03T06:29:42;5.80;99.90
24412;DHT22;12544;46.760;15.942;2023-03-03T06:35:05;5.80;99.90
24412;DHT22;12544;46.760;15.942;2023-03-03T06:37:30;5.90;99.90
24412;DHT22;12544;46.760;15.942;2023-03-03T06:39:56;5.90;99.90
24412;DHT22;12544;46.760;15.942;2023-03-03T06:42:22;6.00;99.90
24412;DHT22;12544;46.760;15.942;2023-03-03T06:44:49;6.00;99.90
24412;DHT22;12544;46.760;15.942;2023-03-03T06:47:17;6.00;99.90
24412;DHT22;12544;46.760;15.942;2023-03-03T06:49:43;6.00;99.90
24412;DHT22;12544;46.760;15.942;2023-03-03T06:52:10;6.10;99.90
24412;DHT22;12544;46.760;15.942;2023-03-03T06:54:37;6.00;99.90
24412;DHT22;12544;46.760;15.942;2023-03-03T06:57:05;6.00;99.90
24412;DHT22;12544;46.760;15.942;2023-03-03T06:59:33;6.00;99.90
24412;DHT22;12544;46.760;15.942;2023-03-03T07:01:58;6.10;99.90
24412;DHT22;12544;46.760;15.942;2023-03-03T07:04:25;6.10;99.90
24412;DHT22;12544;46.760;15.942;2023-03-03T07:06:53;6.10;99.90
24412;DHT22;12544;46.760;15.942;2023-03-03T07:09:20;6.00;99.90
24412;DHT22;12544;46.760;15.942;2023-03-03T07:11:46;5.90;99.90
24412;DHT22;12544;46.760;15.942;2023-03-03T07:14:15;5.90;99.90
24412;DHT22;12544;46.760;15.942;2023-03-03T07:16:42;5.90;99.90
24412;DHT22;12544;46.760;15.942;2023-03-03T07:19:18;5.90;99.90
24412;DHT22;12544;46.760;15.942;2023-03-03T07:21:44;5.90;99.90
24412;DHT22;12544;46.760;15.942;2023-03-03T07:24:15;6.00;99.90
24412;DHT22;12544;46.760;15.942;2023-03-03T07:26:42;6.00;99.90
24412;DHT22;12544;46.760;15.942;2023-03-03T07:31:39;6.10;99.90
24412;DHT22;12544;46.760;15.942;2023-03-03T07:36:51;6.20;99.90
24412;DHT22;12544;46.760;15.942;2023-03-03T07:39:24;6.20;99.90
24412;DHT22;12544;46.760;15.942;2023-03-03T07:45:18;6.20;99.90
24412;DHT22;12544;46.760;15.942;2023-03-03T07:47:45;6.10;99.90
24412;DHT22;12544;46.760;15.942;2023-03-03T07:50:17;6.10;99.90
24412;DHT22;12544;46.760;15.942;2023-03-03T07:55:44;6.00;99.90
24412;DHT22;12544;46.760;15.942;2023-03-03T08:03:28;6.00;99.90
24412;DHT22;12544;46.760;15.942;2023-03-03T08:05:53;6.00;99.90
24412;DHT22;12544;46.760;15.942;2023-03-03T08:10:46;5.90;99.90
24412;DHT22;12544;46.760;15.942;2023-03-03T08:13:19;6.00;99.90
24412;DHT22;12544;46.760;15.942;2023-03-03T08:15:46;6.00;99.90
24412;DHT22;12544;46.760;15.942;2023-03-03T08:18:23;6.00;99.90
24412;DHT22;12544;46.760;15.942;2023-03-03T08:20:53;6.20;99.90
24412;DHT22;12544;46.760;15.942;2023-03-03T08:23:19;6.20;99.90
24412;DHT22;12544;46.760;15.942;2023-03-03T08:25:45;6.20;99.90
24412;DHT22;12544;46.760;15.942;2023-03-03T08:28:19;6.30;99.90
24412;DHT22;12544;46.760;15.942;2023-03-03T08:30:44;6.30;99.90
24412;DHT22;12544;46.760;15.942;2023-03-03T08:33:11;6.40;99.90
24412;DHT22;12544;46.760;15.942;2023-03-03T08:35:37;6.40;99.90
24412;DHT22;12544;46.760;15.942;2023-03-03T08:38:03;6.50;99.90
24412;DHT22;12544;46.760;15.942;2023-03-03T08:40:28;6.50;99.90
24412;DHT22;12544;46.760;15.942;2023-03-03T08:45:24;6.70;99.90
24412;DHT22;12544;46.760;15.942;2023-03-03T08:47:49;6.70;99.90
24412;DHT22;12544;46.760;15.942;2023-03-03T08:50:15;6.80;99.90
24412;DHT22;12544;46.760;15.942;2023-03-03T08:52:41;6.90;99.90
24412;DHT22;12544;46.760;15.942;2023-03-03T08:55:07;7.00;99.90
24412;DHT22;12544;46.760;15.942;2023-03-03T08:57:32;6.90;99.90
24412;DHT22;12544;46.760;15.942;2023-03-03T08:59:58;7.10;99.90
24412;DHT22;12544;46.760;15.942;2023-03-03T09:02:23;7.00;99.90
24412;DHT22;12544;46.760;15.942;2023-03-03T09:04:49;7.10;99.90
24412;DHT22;12544;46.760;15.942;2023-03-03T09:07:14;7.30;99.90
24412;DHT22;12544;46.760;15.942;2023-03-03T09:09:41;7.30;99.90
24412;DHT22;12544;46.760;15.942;2023-03-03T09:12:16;7.30;99.90
24412;DHT22;12544;46.760;15.942;2023-03-03T09:14:42;7.40;99.90
24412;DHT22;12544;46.760;15.942;2023-03-03T09:19:49;7.50;99.90
24412;DHT22;12544;46.760;15.942;2023-03-03T09:22:19;7.50;99.90
24412;DHT22;12544;46.760;15.942;2023-03-03T09:24:45;7.60;99.90
24412;DHT22;12544;46.760;15.942;2023-03-03T09:27:14;7.60;99.90
24412;DHT22;12544;46.760;15.942;2023-03-03T09:29:46;7.70;99.90
24412;DHT22;12544;46.760;15.942;2023-03-03T09:34:49;7.80;99.90
24412;DHT22;12544;46.760;15.942;2023-03-03T09:37:20;7.90;99.90
24412;DHT22;12544;46.760;15.942;2023-03-03T09:39:50;7.90;99.90
24412;DHT22;12544;46.760;15.942;2023-03-03T09:45:18;8.00;99.90
24412;DHT22;12544;46.760;15.942;2023-03-03T09:50:19;8.20;99.90
24412;DHT22;12544;46.760;15.942;2023-03-03T09:55:33;8.40;99.90
24412;DHT22;12544;46.760;15.942;2023-03-03T09:58:08;8.60;99.90
24412;DHT22;12544;46.760;15.942;2023-03-03T10:00:52;8.60;99.90
24412;DHT22;12544;46.760;15.942;2023-03-03T10:05:55;8.60;99.90
24412;DHT22;12544;46.760;15.942;2023-03-03T10:14:12;8.70;99.90
24412;DHT22;12544;46.760;15.942;2023-03-03T10:17:05;8.80;99.90
24412;DHT22;12544;46.760;15.942;2023-03-03T10:22:06;8.70;99.90
24412;DHT22;12544;46.760;15.942;2023-03-03T10:27:38;8.70;99.90
24412;DHT22;12544;46.760;15.942;2023-03-03T10:40:37;8.70;99.90
24412;DHT22;12544;46.760;15.942;2023-03-03T10:48:14;8.80;99.90
24412;DHT22;12544;46.760;15.942;2023-03-03T10:55:47;9.20;99.90
24412;DHT22;12544;46.760;15.942;2023-03-03T10:58:21;9.40;99.90
24412;DHT22;12544;46.760;15.942;2023-03-03T11:00:51;9.60;99.90
24412;DHT22;12544;46.760;15.942;2023-03-03T11:06:09;9.80;99.90
24412;DHT22;12544;46.760;15.942;2023-03-03T11:08:45;9.90;99.90
24412;DHT22;12544;46.760;15.942;2023-03-03T11:36:54;10.20;99.90
24412;DHT22;12544;46.760;15.942;2023-03-03T11:39:23;10.30;99.90
24412;DHT22;12544;46.760;15.942;2023-03-03T11:44:34;10.60;99.90
24412;DHT22;12544;46.760;15.942;2023-03-03T11:47:09;10.70;99.90
24412;DHT22;12544;46.760;15.942;2023-03-03T11:49:39;10.70;99.90
24412;DHT22;12544;46.760;15.942;2023-03-03T11:59:41;10.90;99.90
24412;DHT22;12544;46.760;15.942;2023-03-03T12:04:56;11.20;99.90
24412;DHT22;12544;46.760;15.942;2023-03-03T12:07:31;11.40;99.90
24412;DHT22;12544;46.760;15.942;2023-03-03T12:10:06;11.50;99.90
24412;DHT22;12544;46.760;15.942;2023-03-03T12:22:56;11.80;99.90
24412;DHT22;12544;46.760;15.942;2023-03-03T12:41:52;12.50;99.90
24412;DHT22;12544;46.760;15.942;2023-03-03T12:46:45;12.80;99.90
24412;DHT22;12544;46.760;15.942;2023-03-03T12:49:14;13.00;99.90
24412;DHT22;12544;46.760;15.942;2023-03-03T12:54:46;13.40;99.90
24412;DHT22;12544;46.760;15.942;2023-03-03T12:59:43;14.00;99.90
24412;DHT22;12544;46.760;15.942;2023-03-03T13:15:05;13.70;99.90
24412;DHT22;12544;46.760;15.942;2023-03-03T13:17:39;13.80;99.90
24412;DHT22;12544;46.760;15.942;2023-03-03T13:35:55;13.00;99.90
24412;DHT22;12544;46.760;15.942;2023-03-03T13:38:29;12.90;99.90
24412;DHT22;12544;46.760;15.942;2023-03-03T13:44:08;12.50;99.90
24412;DHT22;12544;46.760;15.942;2023-03-03T13:46:09;12.40;99.90
24412;DHT22;12544;46.760;15.942;2023-03-03T13:53:51;12.10;99.90
24412;DHT22;12544;46.760;15.942;2023-03-03T14:01:51;12.40;99.90
24412;DHT22;12544;46.760;15.942;2023-03-03T14:04:31;12.40;99.90
24412;DHT22;12544;46.760;15.942;2023-03-03T14:07:02;12.40;99.90
24412;DHT22;12544;46.760;15.942;2023-03-03T14:15:10;12.20;99.90
24412;DHT22;12544;46.760;15.942;2023-03-03T14:17:48;12.20;99.90
24412;DHT22;12544;46.760;15.942;2023-03-03T14:20:20;12.30;99.90
24412;DHT22;12544;46.760;15.942;2023-03-03T14:23:20;12.50;99.90
24412;DHT22;12544;46.760;15.942;2023-03-03T14:25:49;12.70;99.90
24412;DHT22;12544;46.760;15.942;2023-03-03T14:31:25;13.00;99.90
24412;DHT22;12544;46.760;15.942;2023-03-03T14:36:26;12.90;99.90
24412;DHT22;12544;46.760;15.942;2023-03-03T14:38:52;13.00;99.90
24412;DHT22;12544;46.760;15.942;2023-03-03T14:41:21;12.90;99.90
24412;DHT22;12544;46.760;15.942;2023-03-03T14:43:57;12.90;99.90
24412;DHT22;12544;46.760;15.942;2023-03-03T14:48:55;12.90;99.90
24412;DHT22;12544;46.760;15.942;2023-03-03T14:53:49;12.80;99.90
24412;DHT22;12544;46.760;15.942;2023-03-03T14:56:25;12.60;99.90
24412;DHT22;12544;46.760;15.942;2023-03-03T14:58:53;12.50;99.90
24412;DHT22;12544;46.760;15.942;2023-03-03T15:04:23;12.30;99.90
24412;DHT22;12544;46.760;15.942;2023-03-03T15:06:50;12.30;99.90
24412;DHT22;12544;46.760;15.942;2023-03-03T15:09:32;12.40;99.90
24412;DHT22;12544;46.760;15.942;2023-03-03T15:12:00;12.50;99.90
24412;DHT22;12544;46.760;15.942;2023-03-03T15:16:52;12.50;99.90
24412;DHT22;12544;46.760;15.942;2023-03-03T15:22:24;12.40;99.90
24412;DHT22;12544;46.760;15.942;2023-03-03T15:25:18;12.30;99.90
24412;DHT22;12544;46.760;15.942;2023-03-03T15:27:43;12.20;99.90
24412;DHT22;12544;46.760;15.942;2023-03-03T15:37:38;12.20;99.90
24412;DHT22;12544;46.760;15.942;2023-03-03T15:45:06;12.40;99.90
24412;DHT22;12544;46.760;15.942;2023-03-03T15:55:26;12.20;99.90
24412;DHT22;12544;46.760;15.942;2023-03-03T16:03:42;11.80;99.90
24412;DHT22;12544;46.760;15.942;2023-03-03T16:06:18;11.50;99.90
24412;DHT22;12544;46.760;15.942;2023-03-03T16:16:46;11.00;99.90
24412;DHT22;12544;46.760;15.942;2023-03-03T16:24:09;10.90;99.90
24412;DHT22;12544;46.760;15.942;2023-03-03T16:34:35;10.90;99.90
24412;DHT22;12544;46.760;15.942;2023-03-03T16:37:11;10.90;99.90
24412;DHT22;12544;46.760;15.942;2023-03-03T16:39:41;10.90;99.90
24412;DHT22;12544;46.760;15.942;2023-03-03T16:52:40;10.80;99.90
24412;DHT22;12544;46.760;15.942;2023-03-03T16:55:10;10.70;99.90
24412;DHT22;12544;46.760;15.942;2023-03-03T16:57:44;10.60;99.90
24412;DHT22;12544;46.760;15.942;2023-03-03T17:10:35;10.40;99.90
24412;DHT22;12544;46.760;15.942;2023-03-03T17:20:54;10.00;99.90
24412;DHT22;12544;46.760;15.942;2023-03-03T17:23:37;9.90;99.90
24412;DHT22;12544;46.760;15.942;2023-03-03T17:26:15;9.80;99.90
24412;DHT22;12544;46.760;15.942;2023-03-03T17:28:55;9.70;99.90
24412;DHT22;12544;46.760;15.942;2023-03-03T17:34:14;9.60;99.90
24412;DHT22;12544;46.760;15.942;2023-03-03T17:41:34;9.50;99.90
24412;DHT22;12544;46.760;15.942;2023-03-03T17:44:08;9.50;99.90
24412;DHT22;12544;46.760;15.942;2023-03-03T17:46:46;9.40;99.90
24412;DHT22;12544;46.760;15.942;2023-03-03T17:49:18;9.30;99.90
24412;DHT22;12544;46.760;15.942;2023-03-03T18:05:24;9.00;99.90
24412;DHT22;12544;46.760;15.942;2023-03-03T18:13:00;9.00;99.90
24412;DHT22;12544;46.760;15.942;2023-03-03T18:15:29;8.90;99.90
24412;DHT22;12544;46.760;15.942;2023-03-03T18:18:03;8.90;99.90
24412;DHT22;12544;46.760;15.942;2023-03-03T18:21:04;8.90;99.90
24412;DHT22;12544;46.760;15.942;2023-03-03T18:25:56;8.80;99.90
24412;DHT22;12544;46.760;15.942;2023-03-03T18:31:20;8.60;99.90
24412;DHT22;12544;46.760;15.942;2023-03-03T18:33:59;8.50;99.90
24412;DHT22;12544;46.760;15.942;2023-03-03T18:38:52;8.30;99.90
24412;DHT22;12544;46.760;15.942;2023-03-03T18:41:24;8.30;99.90
24412;DHT22;12544;46.760;15.942;2023-03-03T18:43:53;8.20;99.90
24412;DHT22;12544;46.760;15.942;2023-03-03T19:04:43;7.70;99.90
24412;DHT22;12544;46.760;15.942;2023-03-03T19:15:06;7.50;99.90
24412;DHT22;12544;46.760;15.942;2023-03-03T19:20:14;7.50;99.90
24412;DHT22;12544;46.760;15.942;2023-03-03T19:28:43;7.50;99.90
24412;DHT22;12544;46.760;15.942;2023-03-03T19:44:25;7.40;99.90
24412;DHT22;12544;46.760;15.942;2023-03-03T19:49:46;7.40;99.90
24412;DHT22;12544;46.760;15.942;2023-03-03T19:57:34;7.10;99.90
24412;DHT22;12544;46.760;15.942;2023-03-03T20:15:15;6.90;99.90
24412;DHT22;12544;46.760;15.942;2023-03-03T20:17:47;6.90;99.90
24412;DHT22;12544;46.760;15.942;2023-03-03T20:35:45;6.70;99.90
24412;DHT22;12544;46.760;15.942;2023-03-03T20:45:54;6.60;99.90
24412;DHT22;12544;46.760;15.942;2023-03-03T20:48:46;6.60;99.90
24412;DHT22;12544;46.760;15.942;2023-03-03T20:56:16;6.50;99.90
24412;DHT22;12544;46.760;15.942;2023-03-03T21:01:15;6.50;99.90
24412;DHT22;12544;46.760;15.942;2023-03-03T21:03:42;6.40;99.90
24412;DHT22;12544;46.760;15.942;2023-03-03T21:06:10;6.40;99.90
24412;DHT22;12544;46.760;15.942;2023-03-03T21:11:08;6.40;99.90
24412;DHT22;12544;46.760;15.942;2023-03-03T21:13:35;6.30;99.90
24412;DHT22;12544;46.760;15.942;2023-03-03T21:18:35;6.30;99.90
24412;DHT22;12544;46.760;15.942;2023-03-03T21:21:00;6.20;99.90
24412;DHT22;12544;46.760;15.942;2023-03-03T21:23:26;6.20;99.90
24412;DHT22;12544;46.760;15.942;2023-03-03T21:25:52;6.30;99.90
24412;DHT22;12544;46.760;15.942;2023-03-03T21:28:22;6.30;99.90
24412;DHT22;12544;46.760;15.942;2023-03-03T21:33:39;6.40;99.90
24412;DHT22;12544;46.760;15.942;2023-03-03T21:36:04;6.40;99.90
24412;DHT22;12544;46.760;15.942;2023-03-03T21:38:34;6.30;99.90
24412;DHT22;12544;46.760;15.942;2023-03-03T21:41:00;6.30;99.90
24412;DHT22;12544;46.760;15.942;2023-03-03T21:43:36;6.30;99.90
24412;DHT22;12544;46.760;15.942;2023-03-03T21:46:02;6.20;99.90
24412;DHT22;12544;46.760;15.942;2023-03-03T21:48:27;6.20;99.90
24412;DHT22;12544;46.760;15.942;2023-03-03T21:50:53;6.20;99.90
24412;DHT22;12544;46.760;15.942;2023-03-03T21:53:18;6.10;99.90
24412;DHT22;12544;46.760;15.942;2023-03-03T21:55:45;6.00;99.90
24412;DHT22;12544;46.760;15.942;2023-03-03T21:58:14;6.00;99.90
24412;DHT22;12544;46.760;15.942;2023-03-03T22:00:40;5.90;99.90
24412;DHT22;12544;46.760;15.942;2023-03-03T22:03:08;5.90;99.90
24412;DHT22;12544;46.760;15.942;2023-03-03T22:05:33;5.90;99.90
24412;DHT22;12544;46.760;15.942;2023-03-03T22:07:59;5.80;99.90
24412;DHT22;12544;46.760;15.942;2023-03-03T22:10:24;5.80;99.90
24412;DHT22;12544;46.760;15.942;2023-03-03T22:12:50;5.80;99.90
24412;DHT22;12544;46.760;15.942;2023-03-03T22:15:15;5.80;99.90
24412;DHT22;12544;46.760;15.942;2023-03-03T22:17:43;5.80;99.90
24412;DHT22;12544;46.760;15.942;2023-03-03T22:20:10;5.80;99.90
24412;DHT22;12544;46.760;15.942;2023-03-03T22:22:36;5.70;99.90
24412;DHT22;12544;46.760;15.942;2023-03-03T22:25:01;5.70;99.90
24412;DHT22;12544;46.760;15.942;2023-03-03T22:27:27;5.60;99.90
24412;DHT22;12544;46.760;15.942;2023-03-03T22:29:53;5.60;99.90
24412;DHT22;12544;46.760;15.942;2023-03-03T22:32:18;5.60;99.90
24412;DHT22;12544;46.760;15.942;2023-03-03T22:34:51;5.50;99.90
24412;DHT22;12544;46.760;15.942;2023-03-03T22:37:16;5.50;99.90
24412;DHT22;12544;46.760;15.942;2023-03-03T22:39:42;5.40;99.90
24412;DHT22;12544;46.760;15.942;2023-03-03T22:42:07;5.40;99.90
24412;DHT22;12544;46.760;15.942;2023-03-03T22:44:34;5.30;99.90
24412;DHT22;12544;46.760;15.942;2023-03-03T22:46:59;5.30;99.90
24412;DHT22;12544;46.760;15.942;2023-03-03T22:49:25;5.20;99.90
24412;DHT22;12544;46.760;15.942;2023-03-03T22:51:50;5.10;99.90
24412;DHT22;12544;46.760;15.942;2023-03-03T22:54:17;5.00;99.90
24412;DHT22;12544;46.760;15.942;2023-03-03T22:56:42;4.90;99.90
24412;DHT22;12544;46.760;15.942;2023-03-03T22:59:08;4.90;99.90
24412;DHT22;12544;46.760;15.942;2023-03-03T23:01:34;4.80;99.90
24412;DHT22;12544;46.760;15.942;2023-03-03T23:03:59;4.70;99.90
24412;DHT22;12544;46.760;15.942;2023-03-03T23:06:24;4.60;99.90
24412;DHT22;12544;46.760;15.942;2023-03-03T23:08:50;4.50;99.90
24412;DHT22;12544;46.760;15.942;2023-03-03T23:11:15;4.50;99.90
24412;DHT22;12544;46.760;15.942;2023-03-03T23:13:41;4.50;99.90
24412;DHT22;12544;46.760;15.942;2023-03-03T23:16:06;4.50;99.90
24412;DHT22;12544;46.760;15.942;2023-03-03T23:18:32;4.50;99.90
24412;DHT22;12544;46.760;15.942;2023-03-03T23:20:57;4.40;99.90
24412;DHT22;12544;46.760;15.942;2023-03-03T23:23:23;4.40;99.90
24412;DHT22;12544;46.760;15.942;2023-03-03T23:25:48;4.30;99.90
24412;DHT22;12544;46.760;15.942;2023-03-03T23:28:14;4.20;99.90
24412;DHT22;12544;46.760;15.942;2023-03-03T23:30:40;4.20;99.90
24412;DHT22;12544;46.760;15.942;2023-03-03T23:33:06;4.10;99.90
24412;DHT22;12544;46.760;15.942;2023-03-03T23:35:32;4.10;99.90
24412;DHT22;12544;46.760;15.942;2023-03-03T23:38:05;4.10;99.90